Terminal Aerodrome Forecast
Issued by NWS Detroit/Pontiac, MI

Home | Current Version | Previous Version | Text Only | Print | Product List | Glossary On
Versions: 1 2 3 4 5 6 7 8 9 10 11 12 13 14 15 16 17 18 19 20 21 22 23 24 25 26 27 28
000
FTUS43 KDTX 280307 AAA
TAFDTW
TAF AMD
KDTW 280307Z 2803/2906 VRB03KT P6SM BKN120 OVC200
     FM281500 13006KT P6SM SCT045 OVC080 PROB30 2815/2818 4SM -SHRA
      OVC045
     FM281800 10008KT 4SM -SHRA BKN025 OVC050
     FM282200 07006KT 6SM -SHRA OVC045=

USA.gov is the U.S. government's official web portal to all federal, state and local government web resources and services.